Time;durP1;ratioP1;P1;durP2;ratioP2;P2;SDS_P1;SDS_P2;PMS_P1;PMS_P2;Temp;Humidity;BMP_temperature;BMP_pressure;BME280_temperature;BME280_humidity;BME280_pressure;Samples;Min_cycle;Max_cycle;Signal;HPM_P1;HPM_P2
2024/04/15 00:00:42;;;;;;;20.55;3.13;;;;;;;6.93;100.00;100638.88;5323004;26;20071;-72
2024/04/15 00:03:07;;;;;;;21.98;2.65;;;;;;;6.93;100.00;100645.03;5315827;26;20468;-73
2024/04/15 00:05:33;;;;;;;12.95;3.17;;;;;;;6.95;100.00;100645.72;5293750;26;20076;-73
2024/04/15 00:07:58;;;;;;;20.05;4.22;;;;;;;6.93;100.00;100649.47;5307687;26;19998;-72
2024/04/15 00:10:24;;;;;;;21.65;3.90;;;;;;;6.91;100.00;100649.63;5333914;26;20083;-73
2024/04/15 00:12:52;;;;;;;16.13;4.13;;;;;;;6.90;100.00;100655.09;5329602;26;20016;-71
2024/04/15 00:15:18;;;;;;;19.75;3.58;;;;;;;6.95;100.00;100652.84;5334440;26;20015;-73
2024/04/15 00:17:43;;;;;;;21.67;4.17;;;;;;;6.91;100.00;100651.47;5305254;26;20852;-75
2024/04/15 00:20:09;;;;;;;23.90;3.38;;;;;;;6.92;100.00;100653.13;5325520;26;20006;-75
2024/04/15 00:22:35;;;;;;;;;;;;;;;6.81;100.00;100613.47;5334634;26;19997;-74
2024/04/15 00:25:00;;;;;;;21.98;3.45;;;;;;;6.83;100.00;100606.19;5313758;26;19935;-74
2024/04/15 00:27:25;;;;;;;16.90;3.30;;;;;;;6.86;100.00;100632.44;5322456;26;19998;-75
2024/04/15 00:29:51;;;;;;;19.73;2.93;;;;;;;6.79;100.00;100626.03;5323824;26;20465;-74
2024/04/15 00:32:16;;;;;;;12.10;2.67;;;;;;;6.74;100.00;100618.50;5325591;26;20219;-75
2024/04/15 00:34:42;;;;;;;21.08;3.78;;;;;;;6.63;100.00;100603.56;5332504;26;20051;-75
2024/04/15 00:37:07;;;;;;;17.10;2.83;;;;;;;6.68;100.00;100625.22;5328358;26;20017;-75
2024/04/15 00:39:33;;;;;;;22.70;4.50;;;;;;;6.73;100.00;100628.28;5321174;26;20439;-75
2024/04/15 00:41:58;;;;;;;17.38;2.67;;;;;;;6.64;100.00;100593.78;5329770;26;20250;-73
2024/04/15 00:44:36;;;;;;;18.43;4.80;;;;;;;6.68;100.00;100593.38;5325994;26;20013;-73
2024/04/15 00:47:02;;;;;;;25.67;3.60;;;;;;;6.75;100.00;100578.56;5333245;26;20236;-75
2024/04/15 00:49:32;;;;;;;18.80;3.92;;;;;;;6.75;100.00;100565.28;5299790;26;20024;-73
2024/04/15 00:51:59;;;;;;;27.65;4.80;;;;;;;6.69;100.00;100536.66;5316098;26;20037;-74
2024/04/15 00:54:25;;;;;;;14.77;3.05;;;;;;;6.65;100.00;100529.13;5310406;26;20012;-72
2024/04/15 00:56:51;;;;;;;28.63;5.05;;;;;;;6.67;100.00;100545.75;5302295;26;20008;-75
2024/04/15 00:59:18;;;;;;;19.13;2.47;;;;;;;6.75;100.00;100545.88;5333727;26;20000;-73
2024/04/15 01:01:43;;;;;;;21.63;4.18;;;;;;;6.73;100.00;100542.53;5329103;26;20004;-74
2024/04/15 01:04:08;;;;;;;25.85;4.43;;;;;;;6.70;100.00;100521.59;5326014;26;20084;-74
2024/04/15 01:06:34;;;;;;;18.27;3.63;;;;;;;6.71;100.00;100515.31;5324658;26;20012;-71
2024/04/15 01:08:59;;;;;;;15.63;3.40;;;;;;;6.66;100.00;100488.38;5325221;26;20005;-73
2024/04/15 01:11:25;;;;;;;32.53;3.40;;;;;;;6.73;100.00;100486.81;5331057;26;20016;-75
2024/04/15 01:13:50;;;;;;;19.58;3.20;;;;;;;6.71;100.00;100481.66;5332784;26;20471;-75
2024/04/15 01:16:16;;;;;;;23.27;3.40;;;;;;;6.62;100.00;100477.19;5333927;26;20016;-74
2024/04/15 01:18:41;;;;;;;20.07;3.47;;;;;;;6.56;100.00;100499.00;5328434;26;20231;-75
2024/04/15 01:21:08;;;;;;;11.90;2.73;;;;;;;6.60;100.00;100499.53;5315426;26;20005;-75
2024/04/15 01:23:38;;;;;;;20.02;3.08;;;;;;;6.47;100.00;100483.94;5329144;26;20001;-74
2024/04/15 01:26:04;;;;;;;16.70;4.50;;;;;;;6.48;100.00;100512.13;5302292;26;20005;-73
2024/04/15 01:28:29;;;;;;;15.10;2.78;;;;;;;6.38;100.00;100498.06;5328934;26;20027;-72
2024/04/15 01:30:55;;;;;;;19.60;3.85;;;;;;;6.51;100.00;100527.78;5318639;26;20006;-73
2024/04/15 01:33:20;;;;;;;16.33;3.67;;;;;;;6.42;100.00;100507.41;5333870;26;20001;-74
2024/04/15 01:35:45;;;;;;;15.20;3.40;;;;;;;6.33;100.00;100503.78;5324064;26;20019;-75
2024/04/15 01:38:11;;;;;;;9.13;3.33;;;;;;;6.34;100.00;100514.25;5313780;26;20240;-75
2024/04/15 01:40:36;;;;;;;14.57;3.45;;;;;;;6.22;100.00;100506.56;5332665;26;20001;-75
2024/04/15 01:43:01;;;;;;;13.03;3.00;;;;;;;6.22;100.00;100512.72;5315989;26;20006;-75
2024/04/15 01:45:27;;;;;;;20.20;3.22;;;;;;;6.22;100.00;100507.41;5329173;26;20009;-74
2024/04/15 01:47:52;;;;;;;15.10;3.73;;;;;;;6.31;100.00;100522.47;5330207;26;20013;-75
2024/04/15 01:50:20;;;;;;;18.97;2.90;;;;;;;6.44;100.00;100497.47;5333320;26;20012;-74
2024/04/15 01:52:45;;;;;;;18.30;3.20;;;;;;;6.53;100.00;100478.91;5330245;26;20366;-75
2024/04/15 01:55:11;;;;;;;22.75;4.07;;;;;;;6.50;100.00;100457.13;5350731;26;20001;-74
2024/04/15 01:57:36;;;;;;;24.20;3.63;;;;;;;6.43;100.00;100434.81;5308609;26;20008;-75
2024/04/15 02:00:06;;;;;;;28.13;3.67;;;;;;;6.25;100.00;100413.50;5331513;26;20079;-73
2024/04/15 02:02:37;;;;;;;22.08;3.47;;;;;;;6.37;100.00;100446.00;5321366;26;20460;-75
2024/04/15 02:05:03;;;;;;;22.65;4.93;;;;;;;6.42;100.00;100422.56;5304005;26;20078;-75
2024/04/15 02:07:28;;;;;;;16.20;3.50;;;;;;;6.41;100.00;100427.00;5304629;26;20001;-75
2024/04/15 02:09:53;;;;;;;17.85;3.10;;;;;;;6.31;100.00;100399.69;5327933;26;20015;-75
2024/04/15 02:12:19;;;;;;;19.17;2.93;;;;;;;6.28;100.00;100390.19;5330753;26;20008;-71
2024/04/15 02:14:45;;;;;;;20.27;3.78;;;;;;;6.29;100.00;100391.03;5325572;26;20017;-74
2024/04/15 02:17:10;;;;;;;14.53;3.30;;;;;;;6.30;100.00;100385.59;5323103;26;20463;-74
2024/04/15 02:19:35;;;;;;;19.17;4.13;;;;;;;6.12;100.00;100374.88;5324757;26;20028;-75
2024/04/15 02:22:01;;;;;;;13.27;3.70;;;;;;;6.04;100.00;100380.06;5314137;26;20001;-74
2024/04/15 02:24:27;;;;;;;20.47;3.40;;;;;;;5.82;100.00;100362.63;5333341;26;20232;-73
2024/04/15 02:26:53;;;;;;;19.98;3.38;;;;;;;5.95;100.00;100391.53;5304194;26;20108;-74
2024/04/15 02:29:19;;;;;;;31.58;4.30;;;;;;;5.91;100.00;100384.78;5335370;26;20970;-71
2024/04/15 02:31:44;;;;;;;18.40;3.75;;;;;;;5.92;100.00;100382.00;5331698;26;20005;-72
2024/04/15 02:34:10;;;;;;;16.63;2.97;;;;;;;5.95;100.00;100365.03;5361104;26;20001;-74
2024/04/15 02:36:35;;;;;;;7.50;2.47;;;;;;;5.95;100.00;100358.88;5333391;26;20036;-74
2024/04/15 02:39:00;;;;;;;18.60;3.00;;;;;;;5.91;100.00;100377.69;5335672;26;20576;-74
2024/04/15 02:41:26;;;;;;;19.00;4.57;;;;;;;5.81;100.00;100366.25;5333785;26;20005;-74
2024/04/15 02:43:51;;;;;;;12.93;2.60;;;;;;;5.69;100.00;100351.50;5338129;26;20001;-74
2024/04/15 02:46:16;;;;;;;13.07;3.83;;;;;;;5.59;100.00;100340.06;5354907;26;20001;-74
2024/04/15 02:48:42;;;;;;;8.90;3.10;;;;;;;5.66;100.00;100373.78;5365546;26;20336;-74
2024/04/15 02:51:08;;;;;;;19.55;3.50;;;;;;;5.57;100.00;100347.31;5307009;26;20239;-73
2024/04/15 02:53:33;;;;;;;16.63;3.25;;;;;;;5.47;100.00;100337.53;5333905;26;20005;-74
2024/04/15 02:55:59;;;;;;;24.73;4.03;;;;;;;5.34;100.00;100310.53;5301922;26;20341;-71
2024/04/15 02:58:24;;;;;;;18.08;5.47;;;;;;;5.14;100.00;100300.91;5331407;26;20554;-74
2024/04/15 03:00:50;;;;;;;26.03;5.20;;;;;;;5.13;100.00;100321.25;5331369;26;20020;-74
2024/04/15 03:03:15;;;;;;;13.00;3.83;;;;;;;5.04;100.00;100324.72;5336094;26;20001;-74
2024/04/15 03:05:41;;;;;;;10.80;2.40;;;;;;;4.92;100.00;100296.72;5334903;26;20048;-74
2024/04/15 03:08:06;;;;;;;16.92;4.40;;;;;;;4.83;100.00;100285.13;5337291;26;20220;-74
2024/04/15 03:10:32;;;;;;;17.07;2.70;;;;;;;4.79;100.00;100289.84;5333769;26;20864;-74
2024/04/15 03:12:57;;;;;;;14.40;3.58;;;;;;;4.75;100.00;100290.25;5330879;26;20233;-74
2024/04/15 03:15:22;;;;;;;9.10;2.75;;;;;;;4.54;100.00;100285.06;5336951;26;20016;-74
2024/04/15 03:17:48;;;;;;;15.23;2.90;;;;;;;4.56;100.00;100304.25;5331647;26;20001;-74
2024/04/15 03:20:14;;;;;;;16.60;3.25;;;;;;;4.49;100.00;100290.75;5335626;26;21167;-71
2024/04/15 03:22:39;;;;;;;13.88;3.50;;;;;;;4.30;100.00;100272.19;5337584;26;20001;-73
2024/04/15 03:25:05;;;;;;;20.40;3.33;;;;;;;4.11;100.00;100294.91;5332923;26;20011;-72
2024/04/15 03:27:30;;;;;;;22.33;3.35;;;;;;;4.09;100.00;100304.78;5333544;26;20042;-73
2024/04/15 03:29:56;;;;;;;16.67;4.22;;;;;;;4.13;100.00;100345.00;5298621;26;20079;-74
2024/04/15 03:32:21;;;;;;;18.17;4.47;;;;;;;4.29;100.00;100418.53;5335511;26;20005;-74
2024/04/15 03:34:47;;;;;;;29.92;4.25;;;;;;;4.39;100.00;100474.91;5319837;26;20376;-74
2024/04/15 03:37:12;;;;;;;19.48;4.07;;;;;;;4.53;100.00;100503.66;5325612;26;20752;-74
2024/04/15 03:39:37;;;;;;;16.03;3.50;;;;;;;4.60;100.00;100522.50;5328810;26;20012;-74
2024/04/15 03:42:03;;;;;;;15.97;4.60;;;;;;;4.59;100.00;100511.09;5329896;26;21225;-74
2024/04/15 03:44:28;;;;;;;27.85;5.57;;;;;;;4.69;100.00;100507.66;5331308;26;20239;-74
2024/04/15 03:46:54;;;;;;;17.33;3.78;;;;;;;4.73;100.00;100511.69;5317025;26;20041;-71
2024/04/15 03:49:19;;;;;;;27.50;5.63;;;;;;;4.74;100.00;100500.16;5326957;26;20016;-71
2024/04/15 03:51:44;;;;;;;14.03;3.97;;;;;;;4.77;100.00;100494.59;5331053;26;20236;-74
2024/04/15 03:54:10;;;;;;;13.90;4.33;;;;;;;4.71;100.00;100474.81;5335433;26;20227;-74
2024/04/15 03:56:35;;;;;;;21.40;3.45;;;;;;;4.60;100.00;100444.00;5331311;26;20033;-73
2024/04/15 03:59:02;;;;;;;22.83;4.40;;;;;;;4.49;100.00;100427.38;5331548;26;20019;-74
2024/04/15 04:01:28;;;;;;;17.30;4.07;;;;;;;4.40;100.00;100426.34;5324273;26;20144;-74
2024/04/15 04:03:53;;;;;;;18.52;4.85;;;;;;;4.48;100.00;100457.44;5340884;26;20009;-73
2024/04/15 04:06:18;;;;;;;15.57;3.30;;;;;;;4.52;100.00;100472.91;5334638;26;20787;-74
2024/04/15 04:08:44;;;;;;;11.40;3.70;;;;;;;4.53;100.00;100471.94;5328578;26;20270;-71
2024/04/15 04:11:09;;;;;;;15.43;3.65;;;;;;;4.43;100.00;100439.31;5331466;26;20006;-72
2024/04/15 04:13:35;;;;;;;21.30;3.22;;;;;;;4.32;100.00;100420.91;5306432;26;20012;-74
2024/04/15 04:16:04;;;;;;;20.92;4.80;;;;;;;4.34;100.00;100448.03;5315579;26;20001;-74
2024/04/15 04:18:30;;;;;;;11.60;3.42;;;;;;;4.39;100.00;100459.06;5319384;26;20483;-72
2024/04/15 04:20:55;;;;;;;17.02;3.70;;;;;;;4.27;100.00;100437.13;5319449;26;20078;-72
2024/04/15 04:23:20;;;;;;;14.93;4.10;;;;;;;4.21;100.00;100417.38;5304031;26;20077;-74
2024/04/15 04:25:46;;;;;;;13.10;3.80;;;;;;;4.39;100.00;100446.66;5328671;26;20051;-74
2024/04/15 04:28:14;;;;;;;11.82;3.85;;;;;;;4.44;100.00;100433.88;5330366;26;20022;-74
2024/04/15 04:30:39;;;;;;;15.85;4.10;;;;;;;4.45;100.00;100424.19;5330504;26;20020;-72
2024/04/15 04:33:05;;;;;;;21.00;3.95;;;;;;;4.63;100.00;100459.59;5333434;26;20352;-74
2024/04/15 04:35:38;;;;;;;17.70;4.60;;;;;;;4.75;100.00;100476.25;5314577;26;20075;-74
2024/04/15 04:38:04;;;;;;;17.35;4.00;;;;;;;4.77;100.00;100460.22;5330741;26;19996;-71
2024/04/15 04:40:29;;;;;;;11.75;3.58;;;;;;;4.84;100.00;100466.66;5329220;26;20418;-74
2024/04/15 04:42:55;;;;;;;13.95;4.15;;;;;;;4.85;100.00;100457.78;5333413;26;20013;-74
2024/04/15 04:45:20;;;;;;;18.27;3.90;;;;;;;4.92;100.00;100458.91;5347094;26;20071;-73
2024/04/15 04:47:45;;;;;;;22.35;5.38;;;;;;;4.98;100.00;100458.38;5307477;26;20001;-74
2024/04/15 04:50:11;;;;;;;15.33;5.13;;;;;;;4.92;100.00;100458.91;5331531;26;20014;-74
2024/04/15 04:52:36;;;;;;;15.07;5.60;;;;;;;5.03;100.00;100453.53;5331468;26;20299;-73
2024/04/15 04:55:01;;;;;;;20.20;4.70;;;;;;;4.88;100.00;100446.09;5332847;26;20000;-71
2024/04/15 04:57:27;;;;;;;24.47;3.93;;;;;;;5.05;100.00;100446.28;5320190;26;20291;-74
2024/04/15 04:59:53;;;;;;;19.43;4.17;;;;;;;5.18;100.00;100443.41;5315121;26;20510;-73
2024/04/15 05:02:18;;;;;;;19.27;3.97;;;;;;;5.21;100.00;100434.34;5334052;26;20276;-74
2024/04/15 05:04:43;;;;;;;24.23;3.53;;;;;;;5.29;100.00;100434.50;5305766;26;20051;-74
2024/04/15 05:07:09;;;;;;;19.63;3.97;;;;;;;5.22;100.00;100409.53;5318788;26;20248;-71
2024/04/15 05:09:34;;;;;;;14.63;3.47;;;;;;;5.31;100.00;100434.38;5330023;26;20013;-70
2024/04/15 05:11:59;;;;;;;17.25;4.43;;;;;;;5.64;100.00;100470.25;5320960;26;20008;-73
2024/04/15 05:14:25;;;;;;;11.90;3.53;;;;;;;5.38;100.00;100396.63;5333780;26;20005;-74
2024/04/15 05:16:50;;;;;;;14.37;3.67;;;;;;;5.34;100.00;100384.66;5332931;26;20243;-72
2024/04/15 05:19:15;;;;;;;13.83;4.27;;;;;;;5.42;100.00;100374.19;5319546;26;20016;-74
2024/04/15 05:21:41;;;;;;;17.97;3.57;;;;;;;5.57;100.00;100369.34;5334599;26;20024;-74
2024/04/15 05:24:06;;;;;;;21.80;3.40;;;;;;;5.64;100.00;100353.72;5335191;26;20354;-74
2024/04/15 05:26:32;;;;;;;15.00;3.38;;;;;;;5.76;100.00;100341.16;5335086;26;20048;-74
2024/04/15 05:28:58;;;;;;;16.30;3.90;;;;;;;5.78;100.00;100300.28;5300935;26;20005;-72
2024/04/15 05:31:23;;;;;;;17.48;5.00;;;;;;;5.84;100.00;100270.59;5334013;26;20001;-71
2024/04/15 05:33:49;;;;;;;17.20;3.78;;;;;;;5.97;100.00;100264.16;5326662;26;20001;-71
2024/04/15 05:36:14;;;;;;;17.97;4.40;;;;;;;6.29;100.00;100256.66;5333385;26;20000;-74
2024/04/15 05:38:40;;;;;;;14.27;3.58;;;;;;;6.21;100.00;100192.13;5316583;26;20295;-74
2024/04/15 05:41:05;;;;;;;11.20;2.80;;;;;;;6.38;100.00;100193.13;5332835;26;20048;-73
2024/04/15 05:43:31;;;;;;;15.10;3.07;;;;;;;6.48;100.00;100173.50;5334547;26;20045;-74
2024/04/15 05:45:56;;;;;;;15.95;3.28;;;;;;;6.84;100.00;100172.72;5330903;26;20009;-74
2024/04/15 05:48:21;;;;;;;20.83;3.37;;;;;;;7.92;100.00;100215.78;5335110;26;20009;-74
2024/04/15 05:50:47;;;;;;;13.47;3.13;;;;;;;8.39;100.00;100048.56;5333750;26;20280;-74
2024/04/15 05:53:12;;;;;;;9.50;2.70;;;;;;;9.32;100.00;99915.97;5324753;26;20002;-74
2024/04/15 05:55:40;;;;;;;15.53;3.07;;;;;;;10.43;100.00;99766.06;5331167;26;20510;-73
2024/04/15 05:58:06;;;;;;;12.68;2.65;;;;;;;11.10;100.00;99591.38;5328666;26;20371;-74
2024/04/15 06:00:31;;;;;;;14.25;3.20;;;;;;;11.23;100.00;99237.19;5327904;26;20049;-73
2024/04/15 06:02:56;;;;;;;13.83;2.50;;;;;;;11.40;100.00;99152.91;5300434;26;20008;-74
2024/04/15 06:05:24;;;;;;;12.60;3.33;;;;;;;10.98;100.00;98738.44;5320836;26;20464;-71
2024/04/15 06:07:50;;;;;;;12.68;3.00;;;;;;;11.76;100.00;99103.53;5337055;26;20005;-74
2024/04/15 06:10:15;;;;;;;23.13;4.50;;;;;;;12.08;100.00;98895.00;5322655;26;20016;-73
2024/04/15 06:12:41;;;;;;;14.23;2.40;;;;;;;12.33;100.00;98686.31;5335550;26;20349;-74
2024/04/15 06:15:06;;;;;;;11.77;2.20;;;;;;;12.45;100.00;98601.53;5319997;26;20020;-75
2024/04/15 06:17:32;;;;;;;15.30;3.33;;;;;;;12.73;100.00;98728.63;5292799;26;20013;-73
2024/04/15 06:19:57;;;;;;;20.73;4.07;;;;;;;13.29;100.00;98588.13;5328807;26;20001;-74
2024/04/15 06:22:23;;;;;;;11.80;2.47;;;;;;;13.22;100.00;98646.34;5324732;26;20325;-75
2024/04/15 06:24:48;;;;;;;16.60;4.95;;;;;;;11.22;100.00;98133.22;5337500;26;20050;-74
2024/04/15 06:27:13;;;;;;;21.43;3.10;;;;;;;12.21;100.00;98593.41;5331093;26;20359;-72
2024/04/15 06:29:39;;;;;;;13.53;2.60;;;;;;;13.15;99.56;98661.69;5333960;26;19997;-73
2024/04/15 06:32:05;;;;;;;15.13;3.95;;;;;;;13.10;94.63;98348.97;5319230;26;19998;-74
2024/04/15 06:34:31;;;;;;;14.85;2.47;;;;;;;13.65;95.07;98629.13;5305851;26;20087;-74
2024/04/15 06:36:57;;;;;;;17.95;2.20;;;;;;;14.68;91.25;98568.44;5326860;26;20338;-74
2024/04/15 06:39:23;;;;;;;12.75;3.03;;;;;;;13.91;88.65;98265.75;5335195;26;20347;-75
2024/04/15 06:41:49;;;;;;;12.82;3.30;;;;;;;14.62;86.65;98338.47;5308534;26;20083;-71
2024/04/15 06:44:15;;;;;;;14.40;3.40;;;;;;;14.38;83.28;98090.09;5333405;26;20013;-74
2024/04/15 06:46:40;;;;;;;15.30;2.80;;;;;;;13.72;83.02;98024.66;5328531;26;20530;-73
2024/04/15 06:49:06;;;;;;;16.90;3.38;;;;;;;13.27;84.63;98180.22;5335711;26;20005;-74
2024/04/15 06:51:32;;;;;;;14.90;2.80;;;;;;;13.06;85.84;98295.06;5324576;26;20004;-75
2024/04/15 06:53:58;;;;;;;15.68;3.15;;;;;;;13.07;84.82;98272.56;5322801;26;20297;-74
2024/04/15 06:56:24;;;;;;;18.07;2.90;;;;;;;13.46;84.67;98435.44;5336079;26;20546;-72
2024/04/15 06:58:49;;;;;;;10.52;2.47;;;;;;;13.18;82.73;98193.22;5335781;26;20460;-73
2024/04/15 07:01:15;;;;;;;12.20;1.98;;;;;;;12.65;82.84;98085.44;5336516;26;20001;-74
2024/04/15 07:03:40;;;;;;;14.90;3.57;;;;;;;12.84;84.82;98442.16;5328042;26;20001;-72
2024/04/15 07:06:06;;;;;;;12.93;2.67;;;;;;;12.80;85.12;98418.75;5333950;26;20568;-74
2024/04/15 07:08:31;;;;;;;14.40;3.67;;;;;;;13.44;85.86;98660.03;5338501;26;20479;-74
2024/04/15 07:10:56;;;;;;;15.57;2.73;;;;;;;12.54;83.37;98228.16;5336238;26;20001;-73
2024/04/15 07:13:22;;;;;;;11.93;3.10;;;;;;;12.70;85.70;98555.88;5336914;26;20052;-74
2024/04/15 07:15:48;;;;;;;17.42;3.17;;;;;;;12.32;84.68;98326.16;5337689;26;20356;-74
2024/04/15 07:18:14;;;;;;;14.02;3.15;;;;;;;11.25;86.01;98305.56;5337784;26;20489;-71
2024/04/15 07:20:39;;;;;;;16.00;2.83;;;;;;;11.48;88.74;98604.09;5336068;26;20001;-74
2024/04/15 07:23:05;;;;;;;10.33;3.70;;;;;;;10.92;88.73;98470.44;5337058;26;20083;-74
2024/04/15 07:25:30;;;;;;;22.80;3.53;;;;;;;10.60;91.21;98560.44;5329924;26;20045;-74
2024/04/15 07:27:56;;;;;;;19.97;3.37;;;;;;;11.25;91.55;98748.94;5332335;26;20081;-74
2024/04/15 07:30:21;;;;;;;10.30;2.55;;;;;;;10.69;92.21;98647.19;5333434;26;20352;-74
2024/04/15 07:32:51;;;;;;;22.55;3.78;;;;;;;10.51;97.20;98973.44;5318084;26;20472;-74
2024/04/15 07:35:18;;;;;;;20.42;3.00;;;;;;;10.34;97.90;98964.19;5320634;26;20012;-72
2024/04/15 07:37:45;;;;;;;16.63;2.28;;;;;;;10.65;97.30;98952.06;5322562;26;20006;-73
2024/04/15 07:40:11;;;;;;;12.85;2.33;;;;;;;11.40;97.11;99056.72;5318179;26;20056;-74
2024/04/15 07:42:36;;;;;;;12.18;3.60;;;;;;;11.31;95.65;98903.84;5328394;26;20001;-74
2024/04/15 07:45:02;;;;;;;19.73;3.05;;;;;;;11.19;96.96;98993.66;5336142;26;20017;-73
2024/04/15 07:47:27;;;;;;;16.77;2.27;;;;;;;10.78;98.68;98995.59;5336769;26;20037;-74
2024/04/15 07:49:54;;;;;;;14.45;2.95;;;;;;;9.54;100.00;98861.94;5333735;26;20083;-71
2024/04/15 07:52:19;;;;;;;15.67;3.63;;;;;;;10.23;100.00;99196.78;5332935;26;20013;-72
2024/04/15 07:54:46;;;;;;;22.25;4.07;;;;;;;9.56;100.00;98929.97;5333979;26;20309;-74
2024/04/15 07:57:11;;;;;;;14.65;2.78;;;;;;;9.72;100.00;99275.25;5335736;26;20075;-74
2024/04/15 07:59:37;;;;;;;8.20;2.33;;;;;;;10.73;100.00;99269.50;5336475;26;20365;-75
2024/04/15 08:02:02;;;;;;;14.77;3.47;;;;;;;11.18;100.00;99219.09;5307408;26;20752;-74
2024/04/15 08:04:28;;;;;;;12.65;2.50;;;;;;;12.51;100.00;99315.31;5338388;26;20351;-74
2024/04/15 08:06:53;;;;;;;12.70;3.40;;;;;;;11.96;97.00;98868.13;5337577;26;20012;-71
2024/04/15 08:09:20;;;;;;;10.93;2.28;;;;;;;11.68;95.96;98754.38;5333101;26;20080;-74
2024/04/15 08:11:45;;;;;;;17.13;3.07;;;;;;;11.72;97.61;98921.31;5334161;26;20005;-71
2024/04/15 08:14:11;;;;;;;14.03;2.50;;;;;;;12.65;95.43;98979.56;5335427;26;20385;-74
2024/04/15 08:16:37;;;;;;;10.03;2.63;;;;;;;12.88;92.07;98780.75;5325430;26;20016;-74
2024/04/15 08:19:03;;;;;;;14.40;3.13;;;;;;;12.45;87.29;98280.41;5330471;26;20001;-75
2024/04/15 08:21:28;;;;;;;13.73;2.60;;;;;;;11.81;88.22;98272.25;5350345;26;20015;-74
2024/04/15 08:23:54;;;;;;;11.57;2.70;;;;;;;11.85;88.38;98385.69;5304005;26;20005;-72
2024/04/15 08:26:20;;;;;;;7.43;1.90;;;;;;;13.21;89.78;98832.28;5335336;26;20036;-74
2024/04/15 08:28:47;;;;;;;12.13;2.08;;;;;;;14.36;85.54;98681.63;5325664;26;20021;-75
2024/04/15 08:31:12;;;;;;;13.20;3.30;;;;;;;14.20;83.23;98442.72;5316095;26;20044;-75
2024/04/15 08:33:37;;;;;;;9.57;2.97;;;;;;;13.21;80.82;97991.00;5333038;26;20012;-74
2024/04/15 08:36:03;;;;;;;17.43;2.90;;;;;;;12.01;84.57;98168.47;5330698;26;20015;-74
2024/04/15 08:38:29;;;;;;;9.85;2.45;;;;;;;11.65;84.08;98048.44;5332630;26;20001;-71
2024/04/15 08:40:57;;;;;;;10.03;3.60;;;;;;;11.45;84.19;98048.78;5335227;26;20024;-73
2024/04/15 08:43:24;;;;;;;8.52;1.63;;;;;;;10.88;84.09;97916.72;5316446;26;20012;-75
2024/04/15 08:45:55;;;;;;;8.90;2.75;;;;;;;11.11;84.20;98075.28;5313616;26;20036;-75
2024/04/15 08:48:27;;;;;;;8.60;2.85;;;;;;;11.49;85.79;98303.78;5309635;26;20001;-72
2024/04/15 08:50:54;;;;;;;6.63;2.08;;;;;;;11.49;85.62;98269.84;5308054;26;20352;-73
2024/04/15 08:53:19;;;;;;;12.43;2.30;;;;;;;10.88;86.07;98146.25;5317617;26;20012;-73
2024/04/15 08:55:45;;;;;;;6.75;2.60;;;;;;;11.27;88.13;98480.56;5341919;26;20000;-72
2024/04/15 08:58:11;;;;;;;13.38;2.58;;;;;;;12.09;87.25;98586.38;5333882;26;20005;-72
2024/04/15 09:00:38;;;;;;;11.32;2.50;;;;;;;10.76;82.64;97753.13;5343899;26;20016;-72
2024/04/15 09:03:04;;;;;;;6.45;2.08;;;;;;;11.31;85.15;98163.91;5336135;26;20008;-72
2024/04/15 09:05:30;;;;;;;10.60;2.15;;;;;;;12.24;83.94;98352.22;5315295;26;20017;-72
2024/04/15 09:07:56;;;;;;;9.80;2.53;;;;;;;11.67;83.20;98092.56;5315642;26;20144;-72
2024/04/15 09:10:24;;;;;;;13.05;2.33;;;;;;;11.52;83.74;98180.41;5300762;26;20415;-75
2024/04/15 09:12:49;;;;;;;7.23;1.97;;;;;;;12.67;83.47;98420.63;5303400;26;20006;-72
2024/04/15 09:15:15;;;;;;;9.53;2.47;;;;;;;12.97;80.70;98215.31;5331368;26;20017;-73
2024/04/15 09:17:41;;;;;;;11.13;2.55;;;;;;;12.31;78.74;97802.84;5331400;26;20315;-73
2024/04/15 09:20:10;;;;;;;13.35;3.08;;;;;;;12.57;79.97;98064.44;5332598;26;20161;-72
2024/04/15 09:22:36;;;;;;;12.27;2.30;;;;;;;11.35;79.98;97751.03;5323888;26;20001;-72
2024/04/15 09:25:05;;;;;;;7.50;2.30;;;;;;;11.85;81.57;98099.66;5322181;26;20015;-73
2024/04/15 09:27:31;;;;;;;5.90;2.30;;;;;;;11.95;81.56;98158.69;5302890;26;20048;-72
2024/04/15 09:29:59;;;;;;;11.70;2.60;;;;;;;12.27;80.19;98109.31;5303576;26;20001;-72
2024/04/15 09:32:25;;;;;;;6.70;2.55;;;;;;;12.77;78.57;98012.28;5304109;26;20001;-73
2024/04/15 09:34:57;;;;;;;8.45;1.83;;;;;;;13.38;77.69;98130.31;5301978;26;20674;-72
2024/04/15 09:37:23;;;;;;;11.48;2.53;;;;;;;12.69;75.37;97638.78;5303460;26;20079;-76
2024/04/15 09:39:51;;;;;;;6.68;2.85;;;;;;;12.72;76.27;97768.63;5302665;26;20017;-76
2024/04/15 09:42:18;;;;;;;5.60;2.47;;;;;;;12.76;77.63;98024.88;5305054;26;20002;-72
2024/04/15 09:44:46;;;;;;;4.65;2.67;;;;;;;13.32;75.41;97898.97;5336736;26;20210;-75
2024/04/15 09:47:13;;;;;;;9.20;3.22;;;;;;;13.79;74.19;97919.91;5329565;26;20001;-72
2024/04/15 09:49:38;;;;;;;10.88;3.13;;;;;;;13.51;70.89;97407.16;5309268;26;20436;-74
2024/04/15 09:52:06;;;;;;;10.23;2.83;;;;;;;13.64;71.60;97576.59;5317100;26;20056;-75
2024/04/15 09:54:41;;;;;;;11.48;3.00;;;;;;;14.06;69.89;97530.13;5329264;26;20105;-73
2024/04/15 09:57:35;;;;;;;6.22;2.92;;;;;;;15.04;69.01;97679.66;5302509;26;20045;-72
2024/04/15 10:00:02;;;;;;;9.80;2.50;;;;;;;13.64;66.02;96936.00;5315027;26;20333;-72
2024/04/15 10:02:54;;;;;;;8.20;2.40;;;;;;;14.27;66.61;97295.69;5327152;26;20072;-73
2024/04/15 10:05:24;;;;;;;7.55;3.10;;;;;;;13.71;66.35;97055.25;5333463;26;20015;-72
2024/04/15 10:07:58;;;;;;;9.48;3.10;;;;;;;13.17;67.48;97164.88;5334786;26;20005;-72
2024/04/15 10:10:26;;;;;;;8.35;2.67;;;;;;;13.11;67.19;97139.97;5333260;26;20005;-73
2024/04/15 10:12:54;;;;;;;8.27;2.15;;;;;;;13.19;67.18;97160.06;5336365;26;20463;-74
2024/04/15 10:15:22;;;;;;;10.55;2.55;;;;;;;13.02;67.62;97217.34;5316910;26;20795;-74
2024/04/15 10:17:58;;;;;;;10.15;2.70;;;;;;;12.46;69.10;97278.66;5325950;26;20004;-72
2024/04/15 10:20:33;;;;;;;7.43;2.90;;;;;;;13.04;70.65;97686.50;5301474;26;20006;-76
2024/04/15 10:23:24;;;;;;;7.15;2.67;;;;;;;12.88;70.79;97615.13;5328695;26;20012;-74
2024/04/15 10:25:50;;;;;;;13.90;3.28;;;;;;;12.93;71.57;97716.13;5334082;26;20380;-72
2024/04/15 10:28:16;;;;;;;8.00;3.15;;;;;;;12.91;71.94;97659.34;5320096;26;20029;-73
2024/04/15 10:30:45;;;;;;;10.35;3.13;;;;;;;13.09;72.04;97766.91;5330819;26;20407;-71
2024/04/15 10:33:11;;;;;;;6.47;3.22;;;;;;;13.21;71.62;97717.75;5304783;26;20033;-72
2024/04/15 10:35:39;;;;;;;3.47;2.20;;;;;;;13.69;71.25;97847.41;5301526;26;20360;-72
2024/04/15 10:38:09;;;;;;;5.53;2.90;;;;;;;13.68;70.16;97674.22;5301414;26;20006;-72
2024/04/15 10:40:46;;;;;;;9.20;3.15;;;;;;;13.74;68.71;97434.56;5323569;26;19998;-76
2024/04/15 10:43:16;;;;;;;6.60;3.05;;;;;;;13.40;67.62;97250.09;5305501;26;19997;-72
2024/04/15 10:45:42;;;;;;;7.78;2.08;;;;;;;14.16;67.91;97562.34;5311661;26;20725;-73
2024/04/15 10:48:09;;;;;;;4.30;1.80;;;;;;;14.09;65.94;97218.44;5331376;26;19997;-72
2024/04/15 10:50:34;;;;;;;8.13;2.08;;;;;;;15.04;66.60;97663.53;5310909;26;20029;-73
2024/04/15 10:52:59;;;;;;;8.40;2.30;;;;;;;15.27;65.13;97449.91;5310480;26;20006;-76
2024/04/15 10:55:25;;;;;;;9.83;3.17;;;;;;;14.21;65.24;97146.56;5322748;26;19997;-72
2024/04/15 10:57:50;;;;;;;7.83;2.50;;;;;;;14.28;65.77;97269.66;5302944;26;20002;-74
2024/04/15 11:00:18;;;;;;;7.50;2.70;;;;;;;14.32;67.15;97470.09;5318647;26;20024;-72
2024/04/15 11:02:46;;;;;;;10.32;2.30;;;;;;;13.73;66.59;97184.44;5315196;26;20838;-75
2024/04/15 11:05:12;;;;;;;8.55;2.80;;;;;;;14.14;67.72;97546.53;5321851;26;20348;-72
2024/04/15 11:07:41;;;;;;;6.50;2.65;;;;;;;13.60;66.20;97158.22;5304117;26;20199;-72
2024/04/15 11:10:11;;;;;;;8.05;3.25;;;;;;;13.54;66.04;97094.16;5334307;26;20005;-72
2024/04/15 11:12:38;;;;;;;7.68;3.15;;;;;;;13.01;67.96;97253.19;5339140;26;20451;-72
2024/04/15 11:15:08;;;;;;;6.25;2.60;;;;;;;13.75;67.99;97530.03;5324457;26;20001;-76
2024/04/15 11:17:35;;;;;;;9.55;2.60;;;;;;;14.28;67.27;97528.06;5316610;26;20037;-75